Time,TemperatureF,DewpointF,PressureIn,WindDirection,WindDirectionDegrees,WindSpeedMPH,WindSpeedGustMPH,Humidity,HourlyPrecipIn,Conditions,Clouds,dailyrainin,SoftwareType,DateUTC
2013-07-01 00:00:00,63.5,62.9,29.85,SE,129,0.0,0.0,98,0.05,,SKC,0.00,VWS V14.01,2013-07-01 04:00:00,
2013-07-01 00:30:00,63.3,62.7,29.85,SE,129,0.0,0.0,98,0.05,,SKC,0.01,VWS V14.01,2013-07-01 04:30:00,
2013-07-01 01:00:00,63.1,62.5,29.86,SE,129,0.0,0.0,98,0.06,,SKC,0.03,VWS V14.01,2013-07-01 05:00:00,
2013-07-01 01:30:00,62.1,61.2,29.87,NW,325,0.0,2.0,97,0.12,,SKC,0.12,VWS V14.01,2013-07-01 05:30:00,
2013-07-01 02:00:00,60.4,59.8,29.86,NNW,330,0.0,0.0,98,0.28,,SKC,0.29,VWS V14.01,2013-07-01 06:00:00,
2013-07-01 02:30:00,60.1,59.5,29.85,NNW,330,0.0,0.0,98,0.43,,SKC,0.46,VWS V14.01,2013-07-01 06:30:00,
2013-07-01 03:00:00,60.8,60.5,29.85,North,354,0.0,1.0,99,0.34,,SKC,0.46,VWS V14.01,2013-07-01 07:00:00,
2013-07-01 03:30:00,61.6,61.3,29.85,SE,127,0.0,1.0,99,0.18,,SKC,0.47,VWS V14.01,2013-07-01 07:30:00,
2013-07-01 04:00:00,61.9,61.6,29.85,NNE,29,0.0,2.0,99,0.01,,SKC,0.47,VWS V14.01,2013-07-01 08:00:00,
2013-07-01 04:30:00,62.0,61.7,29.85,NNW,337,0.0,2.0,99,0.01,,SKC,0.47,VWS V14.01,2013-07-01 08:30:00,
2013-07-01 05:00:00,62.0,61.7,29.85,ESE,111,0.0,1.0,99,0.00,,SKC,0.47,VWS V14.01,2013-07-01 09:00:00,
2013-07-01 05:30:00,61.5,61.2,29.86,ESE,111,0.0,2.0,99,0.00,,SKC,0.47,VWS V14.01,2013-07-01 09:30:00,
2013-07-01 06:00:00,61.3,61.0,29.87,North,7,0.0,2.0,99,0.00,,SKC,0.47,VWS V14.01,2013-07-01 10:00:00,
2013-07-01 06:30:00,61.0,60.7,29.87,SSW,212,0.0,0.0,99,0.00,,SKC,0.47,VWS V14.01,2013-07-01 10:30:00,
2013-07-01 07:00:00,60.9,60.6,29.88,West,281,0.0,1.0,99,0.00,,SKC,0.47,VWS V14.01,2013-07-01 11:00:00,
2013-07-01 07:30:00,61.1,60.8,29.90,NNE,28,0.0,1.0,99,0.00,,SKC,0.47,VWS V14.01,2013-07-01 11:30:00,
2013-07-01 08:00:00,61.6,61.3,29.89,SSW,194,0.0,2.0,99,0.00,,SKC,0.47,VWS V14.01,2013-07-01 12:00:00,
2013-07-01 08:30:00,62.6,62.0,29.90,South,184,0.0,2.0,98,0.00,,SKC,0.47,VWS V14.01,2013-07-01 12:30:00,
2013-07-01 09:00:00,63.5,62.6,29.91,ESE,103,0.0,3.0,97,0.00,,SKC,0.47,VWS V14.01,2013-07-01 13:00:00,
2013-07-01 09:30:00,64.1,62.9,29.91,NW,308,0.0,1.0,96,0.00,,SKC,0.47,VWS V14.01,2013-07-01 13:30:00,
2013-07-01 10:00:00,65.5,64.0,29.91,SE,144,0.0,1.0,95,0.00,,SKC,0.47,VWS V14.01,2013-07-01 14:00:00,
2013-07-01 10:30:00,66.0,64.2,29.92,East,100,0.0,3.0,94,0.00,,SKC,0.47,VWS V14.01,2013-07-01 14:30:00,
2013-07-01 11:00:00,66.6,64.8,29.92,NE,43,4.0,4.0,94,0.00,,SKC,0.47,VWS V14.01,2013-07-01 15:00:00,
2013-07-01 11:30:00,66.0,64.2,29.93,SE,127,0.0,4.0,94,0.00,,SKC,0.47,VWS V14.01,2013-07-01 15:30:00,
2013-07-01 12:00:00,67.6,65.8,29.93,ESE,105,0.0,4.0,94,0.01,,SKC,0.48,VWS V14.01,2013-07-01 16:00:00,
2013-07-01 12:30:00,68.9,66.5,29.93,ESE,121,0.0,2.0,92,0.01,,SKC,0.48,VWS V14.01,2013-07-01 16:30:00,
2013-07-01 13:00:00,71.8,67.7,29.92,East,96,3.0,3.0,87,0.01,,SKC,0.48,VWS V14.01,2013-07-01 17:00:00,
2013-07-01 13:30:00,73.8,68.3,29.91,SSE,162,0.0,5.0,83,0.00,,SKC,0.48,VWS V14.01,2013-07-01 17:30:00,
2013-07-01 14:00:00,72.4,66.6,29.91,NE,51,0.0,5.0,82,0.00,,SKC,0.48,VWS V14.01,2013-07-01 18:00:00,
2013-07-01 14:30:00,73.0,65.4,29.91,NE,38,0.0,5.0,77,0.00,,SKC,0.48,VWS V14.01,2013-07-01 18:30:00,
2013-07-01 15:00:00,72.8,66.6,29.91,NE,46,0.0,6.0,81,0.00,,SKC,0.48,VWS V14.01,2013-07-01 19:00:00,
2013-07-01 15:30:00,71.0,66.6,29.92,East,101,0.0,5.0,86,0.00,,SKC,0.48,VWS V14.01,2013-07-01 19:30:00,
2013-07-01 16:00:00,71.3,66.6,29.92,East,89,0.0,7.0,85,0.00,,SKC,0.48,VWS V14.01,2013-07-01 20:00:00,
2013-07-01 16:30:00,70.7,66.7,29.91,North,11,4.0,6.0,87,0.00,,SKC,0.48,VWS V14.01,2013-07-01 20:30:00,
2013-07-01 17:00:00,69.1,66.1,29.92,NNE,17,0.0,7.0,90,0.00,,SKC,0.48,VWS V14.01,2013-07-01 21:00:00,
2013-07-01 17:30:00,69.7,66.3,29.92,West,271,0.0,10.0,89,0.00,,SKC,0.48,VWS V14.01,2013-07-01 21:30:00,
2013-07-01 18:00:00,68.9,66.5,29.92,NW,319,0.0,7.0,92,0.00,,SKC,0.48,VWS V14.01,2013-07-01 22:00:00,
2013-07-01 18:30:00,68.9,66.5,29.92,SE,138,0.0,9.0,92,0.00,,SKC,0.48,VWS V14.01,2013-07-01 22:30:00,
2013-07-01 19:00:00,68.5,66.7,29.93,SE,124,0.0,7.0,94,0.00,,SKC,0.48,VWS V14.01,2013-07-01 23:00:00,
2013-07-01 19:30:00,67.5,66.0,29.94,SSW,207,1.0,7.0,95,0.01,,SKC,0.49,VWS V14.01,2013-07-01 23:30:00,
2013-07-01 20:00:00,67.2,66.0,29.95,ESE,108,0.0,7.0,96,0.01,,SKC,0.49,VWS V14.01,2013-07-02 00:00:00,
2013-07-01 20:30:00,67.1,66.2,29.95,SSE,168,0.0,4.0,97,0.01,,SKC,0.49,VWS V14.01,2013-07-02 00:30:00,
2013-07-01 21:00:00,66.9,66.0,29.96,ESE,106,0.0,3.0,97,0.00,,SKC,0.49,VWS V14.01,2013-07-02 01:00:00,
2013-07-01 21:30:00,67.1,66.2,29.96,NNE,30,0.0,12.0,97,0.00,,SKC,0.49,VWS V14.01,2013-07-02 01:30:00,
2013-07-01 22:00:00,67.1,66.2,29.98,NNW,339,0.0,6.0,97,0.00,,SKC,0.49,VWS V14.01,2013-07-02 02:00:00,
2013-07-01 22:30:00,67.0,65.8,29.98,SE,130,0.0,6.0,96,0.00,,SKC,0.49,VWS V14.01,2013-07-02 02:30:00,
2013-07-01 23:00:00,66.7,65.8,29.99,NW,318,4.0,8.0,97,0.13,,SKC,0.62,VWS V14.01,2013-07-02 03:00:00,
2013-07-01 23:30:00,66.4,65.8,29.99,NNW,328,1.0,9.0,98,0.23,,SKC,0.72,VWS V14.01,2013-07-02 03:30:00,